Time;durP1;ratioP1;P1;durP2;ratioP2;P2;SDS_P1;SDS_P2;PMS_P1;PMS_P2;Temp;Humidity;BMP_temperature;BMP_pressure;BME280_temperature;BME280_humidity;BME280_pressure;Samples;Min_cycle;Max_cycle;Signal;HPM_P1;HPM_P2
2023/12/24 00:00:06;;;;;;;;;0.00;0.00;;;;;11.50;100.00;101576.13;5040262;28;45235;-81
2023/12/24 00:02:31;;;;;;;;;0.33;0.33;;;;;11.84;100.00;101644.63;5040379;28;45429;-80
2023/12/24 00:04:56;;;;;;;;;0.00;0.00;;;;;11.49;100.00;101589.44;5040399;28;45381;-81
2023/12/24 00:07:22;;;;;;;;;0.67;0.67;;;;;11.68;100.00;101611.63;5040186;28;46206;-80
2023/12/24 00:09:47;;;;;;;;;0.00;0.00;;;;;11.88;100.00;101654.16;5040734;28;45223;-81
2023/12/24 00:12:12;;;;;;;;;0.00;0.00;;;;;11.93;100.00;101667.25;5040809;28;45699;-80
2023/12/24 00:14:38;;;;;;;;;1.33;1.00;;;;;11.73;100.00;101653.91;5040809;28;45470;-80
2023/12/24 00:17:03;;;;;;;;;1.00;1.00;;;;;12.02;100.00;101688.09;5040418;28;45464;-81
2023/12/24 00:19:29;;;;;;;;;0.00;0.00;;;;;11.66;100.00;101647.94;5040515;28;45353;-81
2023/12/24 00:21:54;;;;;;;;;0.00;0.00;;;;;11.85;100.00;101661.38;5040890;28;45377;-81
2023/12/24 00:24:19;;;;;;;;;0.00;0.00;;;;;11.67;100.00;101639.09;5022784;28;45581;-81
2023/12/24 00:26:45;;;;;;;;;0.00;0.00;;;;;11.71;100.00;101638.09;5039562;28;45483;-81
2023/12/24 00:29:10;;;;;;;;;0.00;0.00;;;;;11.97;100.00;101675.03;5045534;28;45313;-81
2023/12/24 00:31:35;;;;;;;;;0.00;0.00;;;;;11.76;100.00;101644.06;5039683;28;45439;-81
2023/12/24 00:34:01;;;;;;;;;0.00;0.00;;;;;11.90;100.00;101665.59;5040017;28;45374;-81
2023/12/24 00:36:26;;;;;;;;;0.00;0.00;;;;;11.69;100.00;101616.03;5039889;28;45486;-81
2023/12/24 00:38:51;;;;;;;;;1.00;0.00;;;;;11.49;100.00;101600.91;5039629;28;45502;-80
2023/12/24 00:41:17;;;;;;;;;0.00;0.00;;;;;11.65;100.00;101637.41;5038971;28;45480;-80
2023/12/24 00:43:43;;;;;;;;;0.00;0.00;;;;;11.58;100.00;101615.59;5040019;28;45448;-81
2023/12/24 00:46:13;;;;;;;;;0.00;0.00;;;;;11.33;100.00;101557.38;5039866;28;45898;-81
2023/12/24 00:48:39;;;;;;;;;0.00;0.00;;;;;11.83;100.00;101649.97;5023503;28;45442;-81
2023/12/24 00:51:04;;;;;;;;;0.00;0.00;;;;;11.65;100.00;101617.06;5020077;28;45404;-81
2023/12/24 00:53:29;;;;;;;;;0.00;0.00;;;;;11.61;100.00;101626.06;5019666;28;45294;-81
2023/12/24 00:55:57;;;;;;;;;0.00;0.00;;;;;11.75;100.00;101626.41;5019886;28;47475;-81
2023/12/24 00:58:23;;;;;;;;;0.00;0.00;;;;;11.64;100.00;101588.84;5039166;28;45365;-81
2023/12/24 01:00:48;;;;;;;;;1.00;1.00;;;;;11.62;100.00;101600.41;5060288;28;45382;-81
2023/12/24 01:03:15;;;;;;;;;1.67;0.33;;;;;11.98;100.00;101649.38;5059817;28;45321;-81
2023/12/24 01:05:40;;;;;;;;;0.00;0.00;;;;;11.45;100.00;101579.91;5059615;28;46599;-81
2023/12/24 01:08:06;;;;;;;;;0.67;0.67;;;;;11.57;100.00;101603.25;5059762;28;45302;-81
2023/12/24 01:10:31;;;;;;;;;0.00;0.00;;;;;11.83;100.00;101668.53;5060145;28;45959;-80
2023/12/24 01:12:57;;;;;;;;;1.00;1.00;;;;;11.91;100.00;101647.91;5041568;28;45318;-80
2023/12/24 01:15:22;;;;;;;;;0.00;0.00;;;;;11.73;100.00;101627.41;5056228;28;58363;-80
2023/12/24 01:17:47;;;;;;;;;0.67;0.67;;;;;11.85;100.00;101645.47;5039881;28;45458;-81
2023/12/24 01:20:16;;;;;;;;;0.33;0.00;;;;;11.89;100.00;101644.44;5021624;28;45413;-80
2023/12/24 01:22:42;;;;;;;;;1.00;1.00;;;;;11.88;100.00;101659.47;5039495;28;45430;-79
2023/12/24 01:25:09;;;;;;;;;1.00;1.00;;;;;11.89;100.00;101658.56;5021458;28;47237;-80
2023/12/24 01:27:35;;;;;;;;;0.00;0.00;;;;;11.76;100.00;101638.75;5039621;28;45237;-81
2023/12/24 01:30:01;;;;;;;;;0.00;0.00;;;;;11.82;100.00;101651.75;5039542;28;45297;-80
2023/12/24 01:32:26;;;;;;;;;0.00;0.00;;;;;11.42;100.00;101572.03;5048409;28;45195;-80
2023/12/24 01:34:51;;;;;;;;;3.00;1.00;;;;;11.47;100.00;101580.69;5044512;28;46015;-81
2023/12/24 01:37:17;;;;;;;;;1.00;1.00;;;;;11.74;100.00;101619.41;5038916;28;45234;-80
2023/12/24 01:39:42;;;;;;;;;1.00;1.00;;;;;11.62;100.00;101605.72;5021359;28;45384;-79
2023/12/24 01:42:08;;;;;;;;;2.00;1.00;;;;;11.52;100.00;101582.22;5038738;28;45341;-80
2023/12/24 01:44:33;;;;;;;;;1.00;1.00;;;;;11.35;100.00;101550.22;5039029;28;45282;-79
2023/12/24 01:46:59;;;;;;;;;0.00;0.00;;;;;11.40;100.00;101582.72;5027785;28;45469;-80
2023/12/24 01:49:25;;;;;;;;;0.00;0.00;;;;;11.40;100.00;101563.31;5042614;28;45527;-80
2023/12/24 01:51:50;;;;;;;;;1.00;1.00;;;;;11.46;100.00;101557.75;5038397;28;45483;-80
2023/12/24 01:54:16;;;;;;;;;0.33;0.33;;;;;11.48;100.00;101566.53;5039550;28;46322;-80
2023/12/24 01:56:41;;;;;;;;;1.00;1.00;;;;;11.53;100.00;101588.41;5053149;28;45428;-79
2023/12/24 01:59:09;;;;;;;;;0.00;0.00;;;;;11.78;100.00;101610.41;5040064;28;45459;-81
2023/12/24 02:01:35;;;;;;;;;1.00;0.67;;;;;11.74;100.00;101600.00;5038896;28;45539;-80
2023/12/24 02:04:00;;;;;;;;;0.00;0.00;;;;;11.36;100.00;101537.84;5038633;28;46447;-80
2023/12/24 02:06:26;;;;;;;;;1.67;0.00;;;;;11.83;100.00;101612.88;5038778;28;45281;-80
2023/12/24 02:08:51;;;;;;;;;2.00;0.00;;;;;11.55;100.00;101585.72;5038890;28;45294;-80
2023/12/24 02:11:17;;;;;;;;;1.00;0.00;;;;;11.42;100.00;101577.34;5038805;28;45275;-80
2023/12/24 02:13:44;;;;;;;;;0.00;0.00;;;;;11.35;100.00;101525.56;5038810;28;46373;-80
2023/12/24 02:16:14;;;;;;;;;0.00;0.00;;;;;11.39;100.00;101537.72;5038794;28;45365;-81
2023/12/24 02:18:41;;;;;;;;;2.00;1.00;;;;;11.71;100.00;101598.34;5021317;28;45301;-81
2023/12/24 02:21:06;;;;;;;;;0.00;0.00;;;;;11.58;100.00;101586.44;5038709;28;45366;-81
2023/12/24 02:23:31;;;;;;;;;0.67;0.67;;;;;11.69;100.00;101594.81;5038677;28;45332;-81
2023/12/24 02:26:03;;;;;;;;;0.00;0.00;;;;;11.50;100.00;101564.69;5038656;28;45317;-81
2023/12/24 02:28:36;;;;;;;;;0.00;0.00;;;;;11.62;100.00;101611.00;5038591;28;45504;-80
2023/12/24 02:31:06;;;;;;;;;0.00;0.00;;;;;11.16;100.00;101535.97;5038273;28;45421;-81
2023/12/24 02:33:35;;;;;;;;;0.00;0.00;;;;;11.17;100.00;101550.94;5038585;28;46675;-80
2023/12/24 02:36:02;;;;;;;;;1.00;0.00;;;;;11.31;100.00;101582.19;5037734;28;45427;-80
2023/12/24 02:38:27;;;;;;;;;1.00;1.00;;;;;11.47;100.00;101588.63;5038058;28;45391;-80
2023/12/24 02:40:53;;;;;;;;;0.00;0.00;;;;;11.50;100.00;101583.22;5038227;28;45491;-80
2023/12/24 02:43:18;;;;;;;;;0.00;0.00;;;;;11.37;100.00;101555.47;5020224;28;47557;-79
2023/12/24 02:45:44;;;;;;;;;1.67;1.00;;;;;11.79;100.00;101620.09;5028937;28;45326;-80
2023/12/24 02:48:10;;;;;;;;;2.00;1.00;;;;;11.50;100.00;101578.78;5048927;28;45369;-79
2023/12/24 02:50:35;;;;;;;;;1.00;1.00;;;;;11.40;100.00;101560.66;5039311;28;45657;-80
2023/12/24 02:53:01;;;;;;;;;0.00;0.00;;;;;11.33;100.00;101549.44;5038350;28;45453;-80
2023/12/24 02:55:26;;;;;;;;;2.00;0.00;;;;;11.45;100.00;101554.25;5039351;28;45338;-79
2023/12/24 02:57:51;;;;;;;;;0.00;0.00;;;;;11.61;100.00;101559.84;5039573;28;45368;-80
2023/12/24 03:00:17;;;;;;;;;2.00;0.33;;;;;11.76;100.00;101591.06;5038114;28;46955;-81
2023/12/24 03:02:42;;;;;;;;;1.00;0.67;;;;;11.45;100.00;101543.66;5020630;28;48301;-81
2023/12/24 03:05:08;;;;;;;;;0.00;0.00;;;;;11.38;100.00;101539.53;5039589;28;45239;-81
2023/12/24 03:07:33;;;;;;;;;0.00;0.00;;;;;11.45;100.00;101533.06;5025208;28;45803;-81
2023/12/24 03:09:58;;;;;;;;;0.00;0.00;;;;;11.44;100.00;101539.31;5023340;28;45686;-82
2023/12/24 03:12:24;;;;;;;;;0.00;0.00;;;;;11.61;100.00;101565.13;5042839;28;45389;-82
2023/12/24 03:14:49;;;;;;;;;0.33;0.33;;;;;11.18;100.00;101490.91;5042568;28;45843;-82
2023/12/24 03:17:14;;;;;;;;;1.33;1.33;;;;;11.34;100.00;101516.75;5042684;28;45372;-82
2023/12/24 03:19:40;;;;;;;;;0.00;0.00;;;;;11.15;100.00;101494.53;5040879;28;45457;-82
2023/12/24 03:22:05;;;;;;;;;2.00;1.00;;;;;11.61;100.00;101566.91;5042561;28;45366;-82
2023/12/24 03:24:30;;;;;;;;;0.00;0.00;;;;;11.44;100.00;101541.09;5041259;28;45380;-82
2023/12/24 03:26:56;;;;;;;;;0.67;0.67;;;;;11.37;100.00;101539.59;5023088;28;45334;-82
2023/12/24 03:29:22;;;;;;;;;1.00;0.00;;;;;11.76;100.00;101585.75;5040963;28;45629;-82
2023/12/24 03:31:48;;;;;;;;;0.00;0.00;;;;;11.55;100.00;101548.63;5041086;28;45494;-82
2023/12/24 03:34:14;;;;;;;;;0.00;0.00;;;;;11.41;100.00;101509.41;5042154;28;45285;-82
2023/12/24 03:36:40;;;;;;;;;2.00;0.00;;;;;11.35;100.00;101525.56;5040998;28;45281;-82
2023/12/24 03:39:05;;;;;;;;;1.00;1.00;;;;;11.39;100.00;101527.13;5041251;28;45277;-82
2023/12/24 03:41:30;;;;;;;;;0.67;0.00;;;;;11.20;100.00;101484.63;5029195;28;46234;-82
2023/12/24 03:43:56;;;;;;;;;1.00;1.00;;;;;11.51;100.00;101547.88;5042672;28;45282;-81
2023/12/24 03:46:21;;;;;;;;;1.00;1.00;;;;;11.39;100.00;101535.09;5050790;28;45419;-82
2023/12/24 03:48:47;;;;;;;;;0.00;0.00;;;;;11.59;100.00;101551.06;5040215;28;45465;-82
2023/12/24 03:51:12;;;;;;;;;0.00;0.00;;;;;11.12;100.00;101467.31;5041546;28;45373;-83
2023/12/24 03:53:38;;;;;;;;;1.67;0.00;;;;;11.27;100.00;101475.53;5040541;28;45365;-81
2023/12/24 03:56:09;;;;;;;;;0.00;0.00;;;;;11.32;100.00;101496.53;5042687;28;45945;-80
2023/12/24 03:58:34;;;;;;;;;0.00;0.00;;;;;11.25;100.00;101480.03;5040611;28;45289;-81
2023/12/24 04:00:59;;;;;;;;;0.00;0.00;;;;;11.69;100.00;101556.88;5042202;28;46116;-80
2023/12/24 04:03:27;;;;;;;;;0.33;0.00;;;;;11.49;100.00;101524.06;5022598;28;45315;-81
2023/12/24 04:05:52;;;;;;;;;0.00;0.00;;;;;11.30;100.00;101501.03;5040956;28;45349;-80
2023/12/24 04:08:18;;;;;;;;;2.00;1.00;;;;;11.13;100.00;101461.09;5040837;28;45210;-83
2023/12/24 04:10:44;;;;;;;;;0.00;0.00;;;;;11.49;100.00;101516.13;5040710;28;46493;-81
2023/12/24 04:13:09;;;;;;;;;1.33;0.00;;;;;11.60;100.00;101536.03;5022692;28;45821;-81
2023/12/24 04:15:35;;;;;;;;;1.00;1.00;;;;;11.50;100.00;101499.31;5040589;28;45438;-80
2023/12/24 04:18:01;;;;;;;;;1.00;1.00;;;;;11.36;100.00;101495.47;5039841;28;45380;-80
2023/12/24 04:20:27;;;;;;;;;0.00;0.00;;;;;11.49;100.00;101488.78;5040394;28;46668;-80
2023/12/24 04:22:52;;;;;;;;;0.67;0.67;;;;;11.56;100.00;101495.56;5040152;28;45460;-81
2023/12/24 04:25:18;;;;;;;;;2.00;0.67;;;;;11.18;100.00;101437.97;5040600;28;45425;-80
2023/12/24 04:27:43;;;;;;;;;1.00;0.00;;;;;10.98;100.00;101399.91;5040416;28;45293;-80
2023/12/24 04:30:09;;;;;;;;;1.00;1.00;;;;;11.07;100.00;101401.31;5040246;28;46183;-80
2023/12/24 04:32:34;;;;;;;;;1.00;0.00;;;;;10.93;100.00;101393.03;5040283;28;45344;-81
2023/12/24 04:35:00;;;;;;;;;1.33;0.00;;;;;11.39;100.00;101464.44;5040186;28;45936;-80
2023/12/24 04:37:25;;;;;;;;;0.00;0.00;;;;;11.50;100.00;101482.56;5022136;28;45320;-80
2023/12/24 04:39:50;;;;;;;;;0.00;0.00;;;;;11.38;100.00;101472.47;5040033;28;45234;-80
2023/12/24 04:42:16;;;;;;;;;1.00;1.00;;;;;11.11;100.00;101420.59;5040262;28;45400;-79
2023/12/24 04:44:41;;;;;;;;;0.67;0.00;;;;;11.24;100.00;101456.25;5039611;28;45282;-80
2023/12/24 04:47:07;;;;;;;;;0.00;0.00;;;;;11.34;100.00;101477.03;5022937;28;45412;-80
2023/12/24 04:49:33;;;;;;;;;1.00;0.33;;;;;11.29;100.00;101470.16;5043907;28;45372;-80
2023/12/24 04:51:59;;;;;;;;;2.00;0.00;;;;;11.07;100.00;101435.72;5053493;28;45442;-80
2023/12/24 04:54:27;;;;;;;;;0.67;0.67;;;;;11.32;100.00;101486.78;5046266;28;45368;-81
2023/12/24 04:56:53;;;;;;;;;0.00;0.00;;;;;10.69;100.00;101401.94;5041171;28;45349;-80
2023/12/24 04:59:18;;;;;;;;;3.67;1.00;;;;;10.89;100.00;101426.72;5039578;28;46507;-81
2023/12/24 05:01:43;;;;;;;;;1.33;0.00;;;;;11.09;100.00;101451.56;5039723;28;45285;-80
2023/12/24 05:04:09;;;;;;;;;0.00;0.00;;;;;10.92;100.00;101431.91;5039815;28;45280;-81
2023/12/24 05:06:35;;;;;;;;;0.00;0.00;;;;;10.97;100.00;101429.94;5039842;28;45249;-81
2023/12/24 05:09:00;;;;;;;;;2.00;0.00;;;;;11.06;100.00;101475.50;5039491;28;46055;-81
2023/12/24 05:11:25;;;;;;;;;5.00;1.67;;;;;10.80;100.00;101424.41;5039831;28;45268;-81
2023/12/24 05:13:51;;;;;;;;;4.00;1.00;;;;;10.63;100.00;101420.69;5039936;28;45455;-81
2023/12/24 05:16:16;;;;;;;;;1.33;0.67;;;;;10.99;100.00;101486.31;5039866;28;45270;-80
2023/12/24 05:18:42;;;;;;;;;1.33;0.00;;;;;10.66;100.00;101426.75;5039479;28;45593;-81
2023/12/24 05:21:07;;;;;;;;;3.33;0.67;;;;;10.82;100.00;101441.13;5039571;28;45252;-81
2023/12/24 05:23:32;;;;;;;;;1.00;1.00;;;;;10.88;100.00;101458.53;5038209;28;45344;-80
2023/12/24 05:25:58;;;;;;;;;2.33;0.67;;;;;11.10;100.00;101509.72;5021764;28;45298;-80
2023/12/24 05:28:23;;;;;;;;;0.00;0.00;;;;;11.08;100.00;101476.31;5039561;28;45554;-81
2023/12/24 05:30:49;;;;;;;;;2.00;1.00;;;;;10.91;100.00;101461.94;5039461;28;45422;-80
2023/12/24 05:33:14;;;;;;;;;0.33;0.33;;;;;11.06;100.00;101467.56;5039125;28;45343;-81
2023/12/24 05:35:39;;;;;;;;;2.00;2.00;;;;;11.12;100.00;101449.66;5039458;28;45730;-80
2023/12/24 05:38:05;;;;;;;;;3.67;2.00;;;;;11.15;100.00;101444.25;5039111;28;46159;-80
2023/12/24 05:40:31;;;;;;;;;2.00;1.00;;;;;11.14;100.00;101439.00;5038752;28;45356;-80
2023/12/24 05:42:56;;;;;;;;;2.00;2.00;;;;;11.03;100.00;101402.34;5038830;28;45381;-80
2023/12/24 05:45:21;;;;;;;;;3.33;2.00;;;;;10.94;100.00;101390.34;5039401;28;45529;-81
2023/12/24 05:47:47;;;;;;;;;4.67;1.67;;;;;10.90;100.00;101380.81;5020687;28;46885;-80
2023/12/24 05:50:12;;;;;;;;;4.00;2.67;;;;;10.96;100.00;101401.72;5032169;28;45377;-80
2023/12/24 05:52:39;;;;;;;;;1.67;1.00;;;;;11.22;100.00;101437.75;5040016;28;45380;-80
2023/12/24 05:55:12;;;;;;;;;1.00;1.00;;;;;10.91;100.00;101389.59;5040576;28;45401;-80
2023/12/24 05:57:38;;;;;;;;;0.00;0.00;;;;;11.26;100.00;101422.63;5037664;28;46528;-80
2023/12/24 06:00:05;;;;;;;;;1.67;1.00;;;;;11.15;100.00;101401.88;5040114;28;45447;-80
2023/12/24 06:02:30;;;;;;;;;2.00;0.00;;;;;11.23;100.00;101407.72;5022496;28;45552;-80
2023/12/24 06:04:56;;;;;;;;;3.00;2.00;;;;;10.70;100.00;101325.16;5039209;28;45396;-80
2023/12/24 06:07:21;;;;;;;;;1.67;1.00;;;;;10.85;100.00;101352.81;5039011;28;45291;-80
2023/12/24 06:09:46;;;;;;;;;1.00;1.00;;;;;11.29;100.00;101401.31;5038675;28;45353;-80
2023/12/24 06:12:12;;;;;;;;;3.00;3.00;;;;;11.28;100.00;101420.78;5037593;28;45734;-80
2023/12/24 06:14:37;;;;;;;;;2.33;2.00;;;;;11.02;100.00;101363.59;5020915;28;45515;-80
2023/12/24 06:17:02;;;;;;;;;0.67;0.67;;;;;11.10;100.00;101392.38;5020571;28;47521;-80
2023/12/24 06:19:28;;;;;;;;;0.67;0.33;;;;;11.03;100.00;101377.69;5038520;28;45305;-80
2023/12/24 06:21:53;;;;;;;;;4.00;1.67;;;;;11.40;100.00;101445.00;5038884;28;45287;-80
2023/12/24 06:24:20;;;;;;;;;1.00;0.00;;;;;11.31;100.00;101423.31;5038808;28;45483;-80
2023/12/24 06:26:47;;;;;;;;;1.33;0.00;;;;;11.19;100.00;101399.97;5038700;28;45523;-80
2023/12/24 06:29:13;;;;;;;;;1.00;1.00;;;;;10.79;100.00;101339.81;5038845;28;45428;-80
2023/12/24 06:31:38;;;;;;;;;1.67;0.00;;;;;11.16;100.00;101402.75;5020747;28;45549;-81
2023/12/24 06:34:04;;;;;;;;;1.00;1.00;;;;;11.24;100.00;101387.41;5038568;28;45292;-81
2023/12/24 06:36:29;;;;;;;;;1.00;1.00;;;;;10.96;100.00;101355.91;5038606;28;46131;-81
2023/12/24 06:38:54;;;;;;;;;2.33;1.00;;;;;11.06;100.00;101377.56;5020734;28;45278;-81
2023/12/24 06:41:20;;;;;;;;;1.00;1.00;;;;;11.50;100.00;101411.91;5042287;28;45317;-80
2023/12/24 06:43:46;;;;;;;;;4.67;0.67;;;;;11.19;100.00;101399.97;5042076;28;45507;-80
2023/12/24 06:46:12;;;;;;;;;3.33;1.33;;;;;11.21;100.00;101403.41;5023645;28;46426;-81
2023/12/24 06:48:39;;;;;;;;;1.00;1.00;;;;;11.14;100.00;101394.00;5047312;28;45301;-81
2023/12/24 06:51:04;;;;;;;;;0.00;0.00;;;;;11.38;100.00;101424.78;5041395;28;45433;-81
2023/12/24 06:53:30;;;;;;;;;6.00;1.00;;;;;11.16;100.00;101377.13;5040898;28;45326;-81
2023/12/24 06:55:55;;;;;;;;;6.33;1.00;;;;;11.20;100.00;101388.44;5041687;28;46175;-80
2023/12/24 06:58:21;;;;;;;;;2.00;1.00;;;;;11.39;100.00;101426.50;5041959;28;45471;-81
2023/12/24 07:00:46;;;;;;;;;1.00;1.00;;;;;11.04;100.00;101353.78;5015482;28;45314;-80
2023/12/24 07:03:12;;;;;;;;;2.67;2.00;;;;;11.55;100.00;101435.53;5039562;28;45411;-81
2023/12/24 07:05:38;;;;;;;;;2.33;1.67;;;;;11.46;100.00;101406.78;5041269;28;45360;-81
2023/12/24 07:08:04;;;;;;;;;2.00;1.00;;;;;11.59;100.00;101429.19;5024351;28;45267;-80
2023/12/24 07:10:29;;;;;;;;;0.00;0.00;;;;;11.43;100.00;101396.31;5043319;28;45431;-81
2023/12/24 07:12:55;;;;;;;;;2.33;1.00;;;;;11.48;100.00;101404.97;5042569;28;45690;-81
2023/12/24 07:15:20;;;;;;;;;1.00;1.00;;;;;11.62;100.00;101437.00;5041599;28;45298;-81
2023/12/24 07:17:45;;;;;;;;;1.33;1.00;;;;;11.34;100.00;101405.50;5042432;28;46187;-81
2023/12/24 07:20:11;;;;;;;;;3.00;1.00;;;;;11.59;100.00;101436.28;5041120;28;45333;-81
2023/12/24 07:22:37;;;;;;;;;0.00;0.00;;;;;11.20;100.00;101377.84;5042923;28;45432;-81
2023/12/24 07:25:02;;;;;;;;;4.00;1.33;;;;;11.52;100.00;101434.84;5042087;28;45288;-81
2023/12/24 07:27:28;;;;;;;;;2.33;1.00;;;;;11.12;100.00;101364.94;5042175;28;45503;-81
2023/12/24 07:29:53;;;;;;;;;2.67;1.00;;;;;11.22;100.00;101373.38;5044059;28;45285;-81
2023/12/24 07:32:18;;;;;;;;;0.00;0.00;;;;;11.51;100.00;101418.06;5051818;28;45263;-81
2023/12/24 07:34:44;;;;;;;;;1.00;1.00;;;;;11.50;100.00;101432.22;5020101;28;47105;-81
2023/12/24 07:37:09;;;;;;;;;0.67;0.00;;;;;11.19;100.00;101368.22;5042593;28;45542;-81
2023/12/24 07:39:35;;;;;;;;;0.00;0.00;;;;;11.25;100.00;101373.25;5041026;28;45407;-81
2023/12/24 07:42:01;;;;;;;;;0.67;0.67;;;;;11.17;100.00;101377.97;5052531;28;45481;-81
2023/12/24 07:44:26;;;;;;;;;1.67;1.00;;;;;11.38;100.00;101424.78;5051143;28;49621;-81
2023/12/24 07:46:52;;;;;;;;;1.67;1.00;;;;;11.29;100.00;101381.00;5045914;28;45546;-81
2023/12/24 07:49:17;;;;;;;;;2.67;0.67;;;;;10.93;100.00;101316.28;5043346;28;45442;-82
2023/12/24 07:51:43;;;;;;;;;4.33;2.00;;;;;11.06;100.00;101348.44;5023233;28;45449;-81
2023/12/24 07:54:08;;;;;;;;;2.00;1.00;;;;;11.41;100.00;101395.53;5035293;28;45360;-81
2023/12/24 07:56:33;;;;;;;;;3.00;0.67;;;;;11.18;100.00;101377.06;5042768;28;45331;-82
2023/12/24 07:58:58;;;;;;;;;3.67;2.00;;;;;11.09;100.00;101349.19;5041109;28;45417;-82
2023/12/24 08:01:24;;;;;;;;;1.00;1.00;;;;;11.40;100.00;101397.31;5048348;28;45573;-82
2023/12/24 08:03:49;;;;;;;;;7.67;1.00;;;;;11.15;100.00;101359.53;5042026;28;45497;-82
2023/12/24 08:06:18;;;;;;;;;4.00;1.00;;;;;11.06;100.00;101351.09;5041683;28;45388;-83
2023/12/24 08:08:44;;;;;;;;;1.67;1.00;;;;;11.38;100.00;101411.56;5025359;28;45686;-82
2023/12/24 08:11:09;;;;;;;;;4.67;2.67;;;;;11.60;100.00;101451.25;5040830;28;46065;-82
2023/12/24 08:13:35;;;;;;;;;2.00;0.67;;;;;10.92;100.00;101341.06;5041450;28;46327;-82
2023/12/24 08:16:01;;;;;;;;;3.33;2.33;;;;;11.38;100.00;101424.78;5040903;28;45423;-82
2023/12/24 08:18:26;;;;;;;;;2.00;1.00;;;;;11.01;100.00;101345.97;5040619;28;45439;-82
2023/12/24 08:20:51;;;;;;;;;2.00;1.00;;;;;11.20;100.00;101375.22;5042377;28;45382;-82
2023/12/24 08:23:17;;;;;;;;;1.00;1.00;;;;;11.38;100.00;101408.91;5040786;28;46097;-83
2023/12/24 08:25:42;;;;;;;;;5.00;1.00;;;;;11.27;100.00;101380.19;5041348;28;45329;-82
2023/12/24 08:28:07;;;;;;;;;3.00;1.00;;;;;11.19;100.00;101392.03;5043225;28;45301;-81
2023/12/24 08:30:33;;;;;;;;;1.00;1.00;;;;;11.52;100.00;101439.19;5040485;28;45476;-77
2023/12/24 08:32:58;;;;;;;;;1.00;1.00;;;;;11.67;100.00;101466.84;5040558;28;45384;-76
2023/12/24 08:35:23;;;;;;;;;2.33;2.00;;;;;11.64;100.00;101451.09;5040990;28;51471;-77
2023/12/24 08:37:49;;;;;;;;;5.00;1.00;;;;;11.59;100.00;101446.88;5040059;28;45364;-76
2023/12/24 08:40:14;;;;;;;;;2.00;0.67;;;;;11.61;100.00;101440.63;5039944;28;45562;-78
2023/12/24 08:42:40;;;;;;;;;3.33;1.67;;;;;11.66;100.00;101440.41;5019800;28;47202;-77
2023/12/24 08:45:05;;;;;;;;;6.00;2.00;;;;;11.66;100.00;101440.41;5028107;28;51697;-78
2023/12/24 08:47:31;;;;;;;;;1.00;1.00;;;;;11.76;100.00;101458.53;5024648;28;45380;-78
2023/12/24 08:49:57;;;;;;;;;4.67;1.00;;;;;11.63;100.00;101446.69;5022010;28;51992;-78
2023/12/24 08:52:23;;;;;;;;;1.00;1.00;;;;;11.69;100.00;101450.88;5041399;28;45472;-78
2023/12/24 08:54:49;;;;;;;;;3.00;0.00;;;;;11.73;100.00;101456.03;5040138;28;45428;-78
2023/12/24 08:57:14;;;;;;;;;2.00;1.00;;;;;11.58;100.00;101426.63;5047064;28;45497;-77
2023/12/24 08:59:40;;;;;;;;;1.00;1.00;;;;;11.72;100.00;101437.53;5057930;28;45464;-77
2023/12/24 09:02:05;;;;;;;;;3.00;0.00;;;;;11.82;100.00;101460.94;5056264;28;45583;-77
2023/12/24 09:04:31;;;;;;;;;2.00;1.33;;;;;11.78;100.00;101459.34;5022579;28;45372;-77
2023/12/24 09:06:56;;;;;;;;;2.67;1.67;;;;;11.77;100.00;101449.69;5042817;28;45412;-78
2023/12/24 09:09:21;;;;;;;;;2.67;2.00;;;;;11.85;100.00;101460.81;5040082;28;45622;-77
2023/12/24 09:11:47;;;;;;;;;7.00;2.00;;;;;11.94;100.00;101468.38;5039508;28;45389;-78
2023/12/24 09:14:13;;;;;;;;;3.00;2.00;;;;;11.99;100.00;101455.78;5040789;28;45625;-77
2023/12/24 09:16:38;;;;;;;;;3.00;0.33;;;;;11.95;100.00;101442.72;5039567;28;45455;-77
2023/12/24 09:19:03;;;;;;;;;1.00;0.00;;;;;11.98;100.00;101447.88;5034721;28;45380;-78
2023/12/24 09:21:28;;;;;;;;;2.00;1.00;;;;;12.14;100.00;101459.56;5039188;28;46157;-78
2023/12/24 09:23:55;;;;;;;;;4.00;2.00;;;;;12.02;100.00;101447.72;5039300;28;45320;-77
2023/12/24 09:26:20;;;;;;;;;4.33;1.00;;;;;12.18;100.00;101463.81;5021553;28;45329;-78
2023/12/24 09:28:45;;;;;;;;;4.67;1.00;;;;;12.16;100.00;101460.38;5021351;28;45440;-77
2023/12/24 09:31:11;;;;;;;;;2.33;0.67;;;;;12.00;100.00;101425.72;5039322;28;46131;-77
2023/12/24 09:33:36;;;;;;;;;3.00;3.00;;;;;12.20;100.00;101450.50;5039041;28;50142;-79
2023/12/24 09:36:07;;;;;;;;;1.00;1.00;;;;;12.30;100.00;101459.78;5039521;28;45494;-78
2023/12/24 09:38:32;;;;;;;;;1.33;1.00;;;;;12.06;100.00;101418.41;5024014;28;45429;-78
2023/12/24 09:40:57;;;;;;;;;3.00;1.33;;;;;12.22;100.00;101436.25;5059101;28;46175;-78
2023/12/24 09:43:24;;;;;;;;;3.00;2.00;;;;;11.91;100.00;101375.72;5040874;28;45384;-78
2023/12/24 09:45:50;;;;;;;;;3.00;2.00;;;;;12.12;100.00;101396.94;5041386;28;45337;-79
2023/12/24 09:48:15;;;;;;;;;3.33;1.67;;;;;12.30;100.00;101427.97;5058851;28;45272;-78
2023/12/24 09:50:40;;;;;;;;;1.00;1.00;;;;;12.21;100.00;101407.13;5041054;28;47482;-78
2023/12/24 09:53:06;;;;;;;;;1.00;1.00;;;;;12.41;100.00;101436.28;5059215;28;45369;-79
2023/12/24 09:55:31;;;;;;;;;3.67;1.33;;;;;12.49;100.00;101460.69;5041374;28;45355;-77
2023/12/24 09:57:56;;;;;;;;;1.00;1.00;;;;;12.30;100.00;101436.75;5040966;28;45249;-78
2023/12/24 10:00:22;;;;;;;;;1.00;1.00;;;;;12.46;100.00;101450.22;5059146;28;45389;-78
2023/12/24 10:02:47;;;;;;;;;4.00;2.00;;;;;12.53;100.00;101456.97;5059081;28;45265;-78
2023/12/24 10:05:14;;;;;;;;;1.33;1.33;;;;;12.51;100.00;101461.47;5039474;28;45548;-78
2023/12/24 10:07:40;;;;;;;;;2.00;1.67;;;;;12.40;100.00;101427.47;5039243;28;46027;-77
2023/12/24 10:10:08;;;;;;;;;2.67;1.00;;;;;12.50;100.00;101436.72;5021295;28;46667;-78
2023/12/24 10:12:33;;;;;;;;;3.00;2.00;;;;;12.50;100.00;101447.34;5036695;28;45582;-77
2023/12/24 10:14:59;;;;;;;;;4.67;1.67;;;;;12.51;100.00;101443.75;5041675;28;45531;-77
2023/12/24 10:17:36;;;;;;;;;2.67;2.00;;;;;12.17;100.00;101385.19;5024346;28;45438;-77
2023/12/24 10:20:08;;;;;;;;;5.67;2.00;;;;;12.66;100.00;101454.63;5042528;28;46514;-77
2023/12/24 10:22:33;;;;;;;;;2.00;1.00;;;;;12.62;100.00;101437.97;5042634;28;45547;-77
2023/12/24 10:25:04;;;;;;;;;4.00;3.00;;;;;12.70;100.00;101440.25;5042815;28;45313;-77
2023/12/24 10:27:30;;;;;;;;;2.33;1.00;;;;;12.76;100.00;101426.75;5024391;28;45334;-77
2023/12/24 10:30:13;;;;;;;;;4.67;1.33;;;;;12.83;100.00;101436.97;5042133;28;45454;-77
2023/12/24 10:32:39;;;;;;;;;2.33;1.00;;;;;12.70;100.00;101411.06;5042048;28;45437;-77
2023/12/24 10:35:05;;;;;;;;;1.00;1.00;;;;;12.92;100.00;101455.16;5024213;28;45789;-77
2023/12/24 10:37:30;;;;;;;;;5.67;1.00;;;;;12.97;100.00;101426.59;5024078;28;45333;-77
2023/12/24 10:40:10;;;;;;;;;1.00;1.00;;;;;13.10;100.00;101447.28;5042043;28;45313;-78
2023/12/24 10:42:40;;;;;;;;;4.00;1.33;;;;;12.95;100.00;101423.16;5023960;28;45539;-78
2023/12/24 10:45:08;;;;;;;;;4.33;2.00;;;;;13.07;100.00;101427.88;5024054;28;45337;-78
2023/12/24 10:47:35;;;;;;;;;2.33;0.67;;;;;13.03;100.00;101430.75;5023870;28;45313;-78
2023/12/24 10:50:03;;;;;;;;;3.00;0.00;;;;;13.11;100.00;101436.59;5041375;28;46596;-80
2023/12/24 10:52:29;;;;;;;;;4.33;3.00;;;;;13.07;100.00;101433.19;5042849;28;45395;-80
2023/12/24 10:54:57;;;;;;;;;2.33;1.00;;;;;13.01;100.00;101436.13;5041868;28;45360;-78
2023/12/24 10:57:46;;;;;;;;;3.67;2.00;;;;;12.89;100.00;101417.28;5041725;28;45446;-78
2023/12/24 11:00:13;;;;;;;;;4.33;2.00;;;;;12.44;100.00;101341.50;5041496;28;45947;-85
2023/12/24 11:02:44;;;;;;;;;1.00;1.00;;;;;12.93;100.00;101421.47;5023824;28;45357;-79
2023/12/24 11:05:09;;;;;;;;;1.00;0.00;;;;;12.79;100.00;101379.69;5041335;28;45330;-78
2023/12/24 11:07:34;;;;;;;;;2.00;2.00;;;;;13.03;100.00;101420.97;5033137;28;46904;-78
2023/12/24 11:10:05;;;;;;;;;1.00;1.00;;;;;13.03;100.00;101414.81;5041283;28;46691;-79